| time (UTC) | temp F | wind direction | speed MPH | gust MPH | rain 1hr in | rain 24hr in | rain mn in | humidity % | barometer mb |
| 20260507105020 | 52 | 141 | 0.0 | 2.0 | 0.00 | 0.14 | 0.14 | 95 | 1010.8 |
| 20260507104518 | 52 | 117 | 0.0 | 2.0 | 0.00 | 0.14 | 0.14 | 95 | 1011.1 |
| 20260507104015 | 51 | 89 | 0.0 | 0.0 | 0.00 | 0.14 | 0.14 | 95 | 1010.9 |
| 20260507103505 | 51 | 72 | 0.0 | 0.0 | 0.00 | 0.14 | 0.14 | 95 | 1010.8 |
| 20260507103001 | 51 | 116 | 0.0 | 0.0 | 0.00 | 0.14 | 0.14 | 95 | 1010.7 |
| 20260507102458 | 51 | 89 | 0.0 | 0.0 | 0.00 | 0.14 | 0.14 | 95 | 1010.7 |
| 20260507101954 | 51 | 135 | 0.0 | 0.0 | 0.00 | 0.14 | 0.14 | 95 | 1010.8 |
| 20260507101449 | 51 | 95 | 1.0 | 2.0 | 0.00 | 0.14 | 0.14 | 95 | 1010.6 |
| 20260507100946 | 52 | 32 | 0.0 | 0.0 | 0.00 | 0.14 | 0.14 | 95 | 1010.5 |
| 20260507100444 | 52 | 126 | 0.0 | 2.0 | 0.00 | 0.14 | 0.14 | 95 | 1010.4 |
| 20260507095942 | 52 | 128 | 2.0 | 2.0 | 0.00 | 0.14 | 0.14 | 95 | 1010.3 |
| 20260507095439 | 52 | 80 | 0.0 | 0.0 | 0.00 | 0.14 | 0.14 | 95 | 1010.4 |
| 20260507094936 | 52 | 103 | 0.0 | 0.0 | 0.00 | 0.14 | 0.14 | 95 | 1010.4 |
| 20260507094432 | 52 | 76 | 0.0 | 1.0 | 0.00 | 0.14 | 0.14 | 95 | 1010.4 |
| 20260507093929 | 52 | 49 | 0.0 | 1.0 | 0.00 | 0.14 | 0.14 | 95 | 1010.3 |
| 20260507093427 | 52 | 95 | 0.0 | 1.0 | 0.00 | 0.14 | 0.14 | 95 | 1010.5 |
| 20260507092925 | 52 | 124 | 0.0 | 1.0 | 0.00 | 0.14 | 0.14 | 95 | 1010.7 |
| 20260507092421 | 52 | 100 | 0.0 | 1.0 | 0.00 | 0.14 | 0.14 | 95 | 1010.4 |
| 20260507091918 | 52 | 91 | 1.0 | 2.0 | 0.00 | 0.14 | 0.14 | 95 | 1010.5 |
| 20260507091414 | 52 | 109 | 1.0 | 2.0 | 0.00 | 0.14 | 0.14 | 95 | 1010.7 |
| 20260507090910 | 52 | 112 | 0.0 | 3.0 | 0.00 | 0.14 | 0.14 | 95 | 1010.6 |
| 20260507090406 | 52 | 102 | 0.0 | 1.0 | 0.00 | 0.14 | 0.14 | 95 | 1010.4 |
| 20260507085903 | 52 | 135 | 0.0 | 1.0 | 0.00 | 0.14 | 0.14 | 95 | 1010.4 |
| 20260507085400 | 52 | 69 | 0.0 | 1.0 | 0.00 | 0.14 | 0.14 | 95 | 1010.1 |
| 20260507084858 | 52 | 124 | 0.0 | 2.0 | 0.00 | 0.14 | 0.14 | 95 | 1010.2 |
| 20260507084354 | 52 | 49 | 0.0 | 1.0 | 0.00 | 0.14 | 0.14 | 95 | 1010.2 |
| 20260507083851 | 52 | 142 | 0.0 | 1.0 | 0.00 | 0.14 | 0.14 | 95 | 1010.2 |
| 20260507083347 | 52 | 119 | 0.0 | 2.0 | 0.00 | 0.14 | 0.14 | 95 | 1009.9 |
| 20260507082844 | 52 | 129 | 1.0 | 1.0 | 0.00 | 0.14 | 0.14 | 95 | 1009.8 |
| 20260507082339 | 52 | 113 | 0.0 | 2.0 | 0.00 | 0.14 | 0.14 | 95 | 1009.6 |
| 20260507081837 | 52 | 70 | 1.0 | 2.0 | 0.00 | 0.14 | 0.14 | 95 | 1009.7 |
| 20260507081333 | 52 | 52 | 0.0 | 1.0 | 0.00 | 0.14 | 0.14 | 95 | 1009.4 |
| 20260507080830 | 52 | 73 | 1.0 | 3.0 | 0.00 | 0.14 | 0.14 | 95 | 1009.6 |
| 20260507080326 | 52 | 80 | 0.0 | 1.0 | 0.00 | 0.14 | 0.14 | 95 | 1009.7 |
| 20260507075821 | 52 | 89 | 0.0 | 2.0 | 0.00 | 0.14 | 0.14 | 95 | 1009.6 |
| 20260507075317 | 52 | 79 | 3.0 | 3.0 | 0.00 | 0.14 | 0.14 | 95 | 1009.4 |
| 20260507074814 | 52 | 51 | 1.0 | 2.0 | 0.00 | 0.14 | 0.14 | 95 | 1009.4 |
| 20260507074312 | 52 | 76 | 0.0 | 1.0 | 0.00 | 0.14 | 0.14 | 95 | 1009.7 |
| 20260507073809 | 52 | 95 | 0.0 | 1.0 | 0.02 | 0.14 | 0.14 | 95 | 1009.3 |
| 20260507073306 | 52 | 65 | 1.0 | 1.0 | 0.02 | 0.14 | 0.14 | 95 | 1009.6 |
| 20260507072803 | 52 | 72 | 0.0 | 2.0 | 0.00 | 0.13 | 0.13 | 94 | 1009.6 |
| 20260507072300 | 52 | 56 | 0.0 | 1.0 | 0.02 | 0.13 | 0.13 | 94 | 1009.4 |
| 20260507071757 | 52 | 53 | 0.0 | 2.0 | 0.02 | 0.13 | 0.13 | 94 | 1009.7 |
| 20260507071254 | 52 | 101 | 2.0 | 2.0 | 0.02 | 0.13 | 0.13 | 94 | 1009.5 |
| 20260507070751 | 53 | 354 | 0.0 | 3.0 | 0.05 | 0.13 | 0.13 | 95 | 1009.4 |
| 20260507070248 | 53 | 105 | 3.0 | 3.0 | 0.02 | 0.13 | 0.13 | 95 | 1009.6 |
| 20260507065744 | 54 | 63 | 2.0 | 2.0 | 0.00 | 0.12 | 0.12 | 95 | 1009.8 |
| 20260507065241 | 54 | 105 | 2.0 | 2.0 | 0.00 | 0.12 | 0.12 | 95 | 1009.8 |
| 20260507064738 | 54 | 97 | 1.0 | 2.0 | 0.00 | 0.12 | 0.12 | 95 | 1009.9 |
| 20260507064237 | 54 | 73 | 1.0 | 2.0 | 0.00 | 0.12 | 0.12 | 95 | 1009.7 |
| 20260507063734 | 54 | 98 | 1.0 | 2.0 | 0.00 | 0.12 | 0.12 | 95 | 1009.4 |
| 20260507063231 | 54 | 50 | 0.0 | 2.0 | 0.00 | 0.12 | 0.12 | 95 | 1009.5 |
| 20260507062728 | 54 | 70 | 1.0 | 2.0 | 0.00 | 0.12 | 0.12 | 95 | 1009.2 |
| 20260507062225 | 54 | 44 | 0.0 | 2.0 | 0.00 | 0.12 | 0.12 | 95 | 1009.5 |
| 20260507061723 | 54 | 114 | 0.0 | 3.0 | 0.00 | 0.12 | 0.12 | 95 | 1009.7 |
| 20260507061221 | 54 | 129 | 0.0 | 1.0 | 0.00 | 0.12 | 0.12 | 95 | 1009.7 |
| 20260507060719 | 54 | 58 | 1.0 | 2.0 | 0.00 | 0.12 | 0.12 | 95 | 1009.6 |
| 20260507060215 | 54 | 32 | 0.0 | 3.0 | 0.00 | 0.12 | 0.12 | 95 | 1009.5 |
| 20260507055711 | 55 | 68 | 0.0 | 2.0 | 0.00 | 0.12 | 0.12 | 95 | 1009.5 |
| 20260507055207 | 55 | 92 | 1.0 | 3.0 | 0.00 | 0.12 | 0.12 | 95 | 1009.7 |
| 20260507054703 | 55 | 129 | 0.0 | 1.0 | 0.00 | 0.12 | 0.12 | 95 | 1009.7 |
| 20260507054200 | 55 | 32 | 1.0 | 1.0 | 0.00 | 0.12 | 0.12 | 95 | 1009.6 |
| 20260507053658 | 55 | 106 | 1.0 | 2.0 | 0.00 | 0.12 | 0.12 | 95 | 1009.7 |
| 20260507053156 | 55 | 224 | 3.0 | 3.0 | 0.00 | 0.12 | 0.12 | 95 | 1009.9 |
| 20260507052654 | 55 | 129 | 0.0 | 3.0 | 0.02 | 0.12 | 0.12 | 94 | 1009.7 |
| 20260507052150 | 55 | 125 | 0.0 | 2.0 | 0.02 | 0.12 | 0.12 | 94 | 1009.7 |
| 20260507051648 | 55 | 135 | 0.0 | 0.0 | 0.00 | 0.12 | 0.12 | 94 | 1009.8 |
| 20260507051144 | 55 | 124 | 0.0 | 2.0 | 0.02 | 0.12 | 0.12 | 94 | 1009.3 |
| 20260507050641 | 56 | 102 | 1.0 | 2.0 | 0.05 | 0.12 | 0.12 | 93 | 1009.7 |
| 20260507050138 | 56 | 109 | 2.0 | 2.0 | 0.02 | 0.11 | 0.11 | 93 | 1009.7 |
| 20260507045635 | 56 | 102 | 2.0 | 2.0 | 0.14 | 0.11 | 0.11 | 92 | 1009.7 |
| 20260507045131 | 56 | 356 | 0.0 | 3.0 | 0.31 | 0.11 | 0.11 | 91 | 1010.1 |
| 20260507044628 | 56 | 137 | 1.0 | 2.0 | 0.21 | 0.08 | 0.08 | 91 | 1009.9 |
| 20260507044125 | 57 | 55 | 1.0 | 2.0 | 0.26 | 0.06 | 0.06 | 89 | 1009.7 |
| 20260507043621 | 57 | 76 | 1.0 | 2.0 | 0.17 | 0.04 | 0.04 | 88 | 1009.4 |
| 20260507043119 | 58 | 96 | 4.0 | 4.0 | 0.00 | 0.01 | 0.01 | 86 | 1009.6 |
| 20260507042615 | 58 | 102 | 1.0 | 1.0 | 0.02 | 0.01 | 0.01 | 86 | 1009.7 |
| 20260507042110 | 58 | 102 | 3.0 | 4.0 | 0.02 | 0.01 | 0.01 | 86 | 1009.4 |
| 20260507041607 | 59 | 104 | 0.0 | 3.0 | 0.02 | 0.01 | 0.01 | 85 | 1009.7 |
| 20260507041104 | 59 | 91 | 3.0 | 3.0 | 0.02 | 0.01 | 0.01 | 85 | 1009.3 |
| 20260507040600 | 60 | 72 | 2.0 | 2.0 | 0.02 | 0.00 | 0.00 | 83 | 1009.3 |
| 20260507040057 | 60 | 32 | 2.0 | 3.0 | 0.00 | 0.00 | 0.00 | 81 | 1009.3 |
| 20260507035553 | 60 | 44 | 1.0 | 2.0 | 0.00 | 0.17 | 0.17 | 80 | 1009.0 |
| 20260507035049 | 61 | 61 | 2.0 | 3.0 | 0.00 | 0.17 | 0.17 | 79 | 1009.1 |
| 20260507034546 | 61 | 70 | 1.0 | 3.0 | 0.00 | 0.17 | 0.17 | 79 | 1008.7 |
| 20260507034044 | 61 | 74 | 1.0 | 3.0 | 0.00 | 0.17 | 0.17 | 80 | 1008.9 |
| 20260507033542 | 61 | 22 | 0.0 | 1.0 | 0.00 | 0.17 | 0.17 | 79 | 1009.0 |
| 20260507033039 | 61 | 45 | 3.0 | 3.0 | 0.00 | 0.17 | 0.17 | 79 | 1008.6 |
| 20260507032536 | 61 | 108 | 2.0 | 2.0 | 0.00 | 0.17 | 0.17 | 79 | 1009.1 |
| 20260507032032 | 61 | 87 | 3.0 | 4.0 | 0.00 | 0.17 | 0.17 | 78 | 1009.0 |
| 20260507031528 | 61 | 269 | 1.0 | 3.0 | 0.00 | 0.17 | 0.17 | 78 | 1009.0 |
| 20260507031026 | 62 | 66 | 0.0 | 2.0 | 0.00 | 0.17 | 0.17 | 78 | 1009.1 |
| 20260507030522 | 62 | 240 | 3.0 | 3.0 | 0.00 | 0.17 | 0.17 | 78 | 1009.0 |
| 20260507030020 | 62 | 342 | 0.0 | 3.0 | 0.00 | 0.17 | 0.17 | 78 | 1008.6 |
| 20260507025517 | 62 | 78 | 1.0 | 2.0 | 0.00 | 0.17 | 0.17 | 78 | 1008.5 |
| 20260507025015 | 62 | 47 | 3.0 | 3.0 | 0.00 | 0.17 | 0.17 | 77 | 1008.5 |
| 20260507024512 | 62 | 29 | 0.0 | 3.0 | 0.00 | 0.17 | 0.17 | 78 | 1008.7 |
| 20260507024009 | 62 | 51 | 2.0 | 5.0 | 0.00 | 0.17 | 0.17 | 77 | 1008.5 |
| 20260507023504 | 62 | 66 | 2.0 | 3.0 | 0.00 | 0.17 | 0.17 | 77 | 1008.6 |
| 20260507023002 | 62 | 50 | 5.0 | 5.0 | 0.00 | 0.17 | 0.17 | 78 | 1008.5 |
| 20260507022459 | 62 | 43 | 1.0 | 3.0 | 0.00 | 0.17 | 0.17 | 78 | 1008.4 |
| 20260507021954 | 62 | 75 | 1.0 | 3.0 | 0.00 | 0.17 | 0.17 | 79 | 1008.3 |
| 20260507021450 | 62 | 47 | 2.0 | 4.0 | 0.00 | 0.17 | 0.17 | 80 | 1008.3 |
| 20260507020947 | 63 | 56 | 1.0 | 2.0 | 0.00 | 0.17 | 0.17 | 80 | 1008.3 |
| 20260507020444 | 63 | 11 | 2.0 | 4.0 | 0.00 | 0.17 | 0.17 | 80 | 1008.7 |
| 20260507015941 | 63 | 67 | 1.0 | 3.0 | 0.00 | 0.17 | 0.17 | 82 | 1008.5 |
| 20260507015439 | 64 | 65 | 3.0 | 3.0 | 0.00 | 0.17 | 0.17 | 84 | 1008.5 |
| 20260507014936 | 64 | 18 | 0.0 | 2.0 | 0.00 | 0.17 | 0.17 | 85 | 1008.3 |
| 20260507014432 | 64 | 42 | 2.0 | 2.0 | 0.00 | 0.17 | 0.17 | 86 | 1008.0 |
| 20260507013929 | 64 | 69 | 2.0 | 3.0 | 0.00 | 0.17 | 0.17 | 86 | 1008.0 |
| 20260507013426 | 64 | 102 | 2.0 | 3.0 | 0.00 | 0.17 | 0.17 | 86 | 1008.3 |
| 20260507012923 | 65 | 96 | 1.0 | 3.0 | 0.00 | 0.17 | 0.17 | 86 | 1008.5 |
| 20260507012420 | 65 | 82 | 0.0 | 2.0 | 0.00 | 0.17 | 0.17 | 85 | 1008.3 |
| 20260507011917 | 65 | 346 | 2.0 | 3.0 | 0.00 | 0.17 | 0.17 | 84 | 1008.2 |
| 20260507011414 | 65 | 293 | 0.0 | 2.0 | 0.00 | 0.17 | 0.17 | 82 | 1008.4 |
| 20260507010913 | 66 | 320 | 2.0 | 3.0 | 0.00 | 0.17 | 0.17 | 82 | 1008.3 |
| 20260507010409 | 66 | 203 | 2.0 | 4.0 | 0.00 | 0.17 | 0.17 | 82 | 1008.6 |
| 20260507005907 | 66 | 254 | 1.0 | 6.0 | 0.02 | 0.17 | 0.17 | 81 | 1008.4 |
| 20260507005403 | 66 | 87 | 2.0 | 3.0 | 0.02 | 0.17 | 0.17 | 82 | 1008.0 |
| 20260507004900 | 67 | 53 | 0.0 | 3.0 | 0.00 | 0.16 | 0.16 | 83 | 1008.1 |
| 20260507004357 | 67 | 3 | 0.0 | 2.0 | 0.00 | 0.16 | 0.16 | 82 | 1008.1 |
| 20260507003854 | 67 | 217 | 0.0 | 0.0 | 0.00 | 0.16 | 0.16 | 82 | 1007.9 |
| 20260507003349 | 67 | 166 | 0.0 | 1.0 | 0.00 | 0.16 | 0.16 | 82 | 1008.0 |
| 20260507002845 | 67 | 200 | 0.0 | 2.0 | 0.00 | 0.16 | 0.16 | 82 | 1007.8 |
| 20260507002341 | 67 | 187 | 1.0 | 2.0 | 0.00 | 0.16 | 0.16 | 82 | 1008.0 |
| 20260507001838 | 67 | 156 | 1.0 | 3.0 | 0.00 | 0.16 | 0.16 | 81 | 1007.6 |
| 20260507001335 | 68 | 158 | 3.0 | 3.0 | 0.00 | 0.16 | 0.16 | 81 | 1007.4 |
| 20260507000832 | 68 | 157 | 0.0 | 1.0 | 0.00 | 0.16 | 0.16 | 81 | 1007.6 |
| 20260507000328 | 68 | 173 | 1.0 | 2.0 | 0.00 | 0.16 | 0.16 | 80 | 1007.7 |
| 20260506235824 | 68 | 158 | 2.0 | 2.0 | 0.00 | 0.16 | 0.16 | 80 | 1007.6 |
| 20260506235320 | 68 | 144 | 0.0 | 0.0 | 0.00 | 0.16 | 0.16 | 79 | 1007.6 |
| 20260506234817 | 68 | 195 | 0.0 | 2.0 | 0.00 | 0.16 | 0.16 | 79 | 1007.6 |
| 20260506234314 | 68 | 129 | 0.0 | 1.0 | 0.00 | 0.16 | 0.16 | 78 | 1006.9 |
| 20260506233811 | 68 | 210 | 1.0 | 2.0 | 0.00 | 0.16 | 0.16 | 78 | 1007.0 |
| 20260506233307 | 68 | 276 | 0.0 | 3.0 | 0.00 | 0.16 | 0.16 | 77 | 1007.5 |
| 20260506232805 | 69 | 219 | 3.0 | 3.0 | 0.00 | 0.16 | 0.16 | 77 | 1007.3 |
| 20260506232300 | 69 | 162 | 3.0 | 5.0 | 0.00 | 0.16 | 0.16 | 77 | 1007.0 |
| 20260506231757 | 69 | 179 | 2.0 | 3.0 | 0.00 | 0.16 | 0.16 | 77 | 1006.9 |
| 20260506231255 | 69 | 232 | 0.0 | 3.0 | 0.00 | 0.16 | 0.16 | 77 | 1006.9 |
| 20260506230752 | 69 | 131 | 0.0 | 5.0 | 0.00 | 0.16 | 0.16 | 77 | 1007.0 |
| 20260506230249 | 69 | 219 | 1.0 | 4.0 | 0.00 | 0.16 | 0.16 | 76 | 1007.2 |
| 20260506225745 | 69 | 196 | 1.0 | 4.0 | 0.00 | 0.16 | 0.16 | 76 | 1006.9 |
| 20260506225243 | 69 | 248 | 0.0 | 5.0 | 0.00 | 0.16 | 0.16 | 76 | 1006.9 |
| 20260506224739 | 69 | 286 | 0.0 | 3.0 | 0.00 | 0.16 | 0.16 | 76 | 1006.7 |
| 20260506224236 | 69 | 196 | 3.0 | 5.0 | 0.00 | 0.16 | 0.16 | 75 | 1006.5 |
| 20260506223732 | 69 | 149 | 2.0 | 3.0 | 0.00 | 0.16 | 0.16 | 76 | 1006.9 |
| 20260506223228 | 69 | 188 | 1.0 | 3.0 | 0.00 | 0.16 | 0.16 | 76 | 1006.8 |
| 20260506222725 | 68 | 156 | 3.0 | 4.0 | 0.00 | 0.16 | 0.16 | 76 | 1006.9 |
| 20260506222220 | 69 | 209 | 1.0 | 2.0 | 0.00 | 0.16 | 0.16 | 76 | 1007.0 |
| 20260506221719 | 69 | 182 | 3.0 | 6.0 | 0.00 | 0.16 | 0.16 | 76 | 1006.7 |
| 20260506221217 | 69 | 180 | 1.0 | 5.0 | 0.00 | 0.16 | 0.16 | 75 | 1006.8 |
| 20260506220714 | 69 | 163 | 3.0 | 3.0 | 0.00 | 0.16 | 0.16 | 75 | 1006.9 |
| 20260506220208 | 69 | 175 | 3.0 | 7.0 | 0.00 | 0.16 | 0.16 | 74 | 1006.7 |
| 20260506215705 | 69 | 226 | 7.0 | 7.0 | 0.00 | 0.16 | 0.16 | 74 | 1007.2 |
| 20260506215201 | 69 | 172 | 2.0 | 3.0 | 0.00 | 0.16 | 0.16 | 74 | 1006.9 |
| 20260506214657 | 69 | 185 | 3.0 | 9.0 | 0.00 | 0.16 | 0.16 | 73 | 1006.9 |
| 20260506214155 | 70 | 119 | 2.0 | 7.0 | 0.00 | 0.16 | 0.16 | 73 | 1006.8 |
| 20260506213653 | 70 | 209 | 6.0 | 6.0 | 0.00 | 0.16 | 0.16 | 73 | 1006.7 |
| 20260506213150 | 70 | 154 | 2.0 | 3.0 | 0.00 | 0.16 | 0.16 | 73 | 1006.5 |
| 20260506212647 | 70 | 177 | 2.0 | 11.0 | 0.00 | 0.16 | 0.16 | 72 | 1006.6 |
| 20260506212142 | 69 | 215 | 4.0 | 7.0 | 0.00 | 0.16 | 0.16 | 73 | 1006.5 |
| 20260506211638 | 69 | 197 | 5.0 | 9.0 | 0.00 | 0.16 | 0.16 | 73 | 1006.5 |
| 20260506211135 | 69 | 157 | 4.0 | 8.0 | 0.00 | 0.16 | 0.16 | 73 | 1006.5 |
| 20260506210631 | 69 | 238 | 2.0 | 5.0 | 0.00 | 0.16 | 0.16 | 73 | 1006.6 |
| 20260506210128 | 70 | 185 | 2.0 | 5.0 | 0.00 | 0.16 | 0.16 | 73 | 1006.4 |
| 20260506205625 | 70 | 210 | 10.0 | 12.0 | 0.00 | 0.16 | 0.16 | 71 | 1006.2 |
| 20260506205120 | 70 | 171 | 3.0 | 5.0 | 0.00 | 0.16 | 0.16 | 71 | 1006.1 |
| 20260506204618 | 71 | 184 | 2.0 | 5.0 | 0.00 | 0.16 | 0.16 | 70 | 1006.4 |
| 20260506204115 | 71 | 171 | 5.0 | 7.0 | 0.00 | 0.16 | 0.16 | 70 | 1006.0 |
| 20260506203614 | 70 | 209 | 4.0 | 5.0 | 0.00 | 0.16 | 0.16 | 72 | 1006.2 |
| 20260506203109 | 69 | 144 | 2.0 | 5.0 | 0.00 | 0.16 | 0.16 | 73 | 1006.3 |
| 20260506202608 | 70 | 280 | 2.0 | 6.0 | 0.00 | 0.16 | 0.16 | 73 | 1006.3 |
| 20260506202104 | 69 | 225 | 5.0 | 9.0 | 0.00 | 0.16 | 0.16 | 73 | 1006.6 |
| 20260506201601 | 69 | 258 | 3.0 | 6.0 | 0.00 | 0.16 | 0.16 | 73 | 1006.2 |
| 20260506201057 | 69 | 231 | 2.0 | 7.0 | 0.00 | 0.16 | 0.16 | 73 | 1006.3 |
| 20260506200554 | 69 | 200 | 4.0 | 8.0 | 0.00 | 0.16 | 0.16 | 73 | 1006.2 |
| 20260506200051 | 70 | 210 | 3.0 | 9.0 | 0.00 | 0.16 | 0.16 | 72 | 1006.2 |
| 20260506195547 | 71 | 278 | 5.0 | 8.0 | 0.00 | 0.16 | 0.16 | 71 | 1006.3 |
| 20260506195044 | 71 | 137 | 3.0 | 9.0 | 0.00 | 0.16 | 0.16 | 70 | 1006.4 |
| 20260506194542 | 71 | 213 | 3.0 | 7.0 | 0.00 | 0.16 | 0.16 | 71 | 1006.2 |
| 20260506194037 | 70 | 222 | 5.0 | 7.0 | 0.00 | 0.16 | 0.16 | 71 | 1006.3 |
| 20260506193535 | 70 | 210 | 6.0 | 8.0 | 0.00 | 0.16 | 0.16 | 72 | 1006.3 |
| 20260506193032 | 69 | 294 | 4.0 | 5.0 | 0.00 | 0.16 | 0.16 | 74 | 1006.2 |
| 20260506192529 | 69 | 180 | 3.0 | 6.0 | 0.00 | 0.16 | 0.16 | 75 | 1006.5 |
| 20260506192025 | 68 | 168 | 8.0 | 9.0 | 0.00 | 0.16 | 0.16 | 75 | 1006.4 |
| 20260506191522 | 68 | 213 | 3.0 | 6.0 | 0.00 | 0.16 | 0.16 | 76 | 1006.5 |
| 20260506191018 | 68 | 157 | 4.0 | 9.0 | 0.00 | 0.16 | 0.16 | 76 | 1006.8 |
| 20260506190515 | 68 | 167 | 7.0 | 9.0 | 0.00 | 0.16 | 0.16 | 76 | 1006.6 |
| 20260506190012 | 68 | 218 | 7.0 | 12.0 | 0.00 | 0.16 | 0.16 | 76 | 1006.6 |
| 20260506185509 | 68 | 172 | 7.0 | 10.0 | 0.00 | 0.16 | 0.16 | 76 | 1006.7 |
| 20260506185006 | 67 | 199 | 6.0 | 11.0 | 0.00 | 0.16 | 0.16 | 76 | 1007.2 |
| 20260506184503 | 67 | 235 | 8.0 | 12.0 | 0.00 | 0.16 | 0.16 | 77 | 1006.8 |
| 20260506184000 | 67 | 261 | 8.0 | 11.0 | 0.00 | 0.16 | 0.16 | 78 | 1006.9 |
| 20260506183455 | 67 | 198 | 4.0 | 9.0 | 0.00 | 0.16 | 0.16 | 79 | 1007.0 |
| 20260506182953 | 66 | 177 | 4.0 | 5.0 | 0.00 | 0.16 | 0.16 | 79 | 1006.9 |
| 20260506182450 | 66 | 192 | 3.0 | 5.0 | 0.00 | 0.16 | 0.16 | 80 | 1007.0 |
| 20260506181947 | 66 | 188 | 6.0 | 8.0 | 0.00 | 0.16 | 0.16 | 81 | 1007.3 |
| 20260506181445 | 65 | 194 | 3.0 | 6.0 | 0.00 | 0.16 | 0.16 | 81 | 1007.3 |
| 20260506180941 | 65 | 242 | 13.0 | 15.0 | 0.00 | 0.16 | 0.16 | 81 | 1007.3 |
| 20260506180437 | 65 | 236 | 4.0 | 7.0 | 0.00 | 0.16 | 0.16 | 81 | 1007.2 |
| 20260506175929 | 65 | 197 | 3.0 | 8.0 | 0.00 | 0.16 | 0.16 | 83 | 1007.4 |
| 20260506175426 | 65 | 172 | 3.0 | 4.0 | 0.00 | 0.16 | 0.16 | 83 | 1007.3 |
| 20260506174923 | 65 | 186 | 6.0 | 7.0 | 0.00 | 0.16 | 0.16 | 83 | 1007.5 |
| 20260506174420 | 64 | 179 | 3.0 | 12.0 | 0.00 | 0.16 | 0.16 | 83 | 1007.3 |
| 20260506173917 | 64 | 211 | 6.0 | 13.0 | 0.00 | 0.16 | 0.16 | 83 | 1007.4 |
| 20260506173414 | 64 | 171 | 5.0 | 10.0 | 0.00 | 0.16 | 0.16 | 84 | 1007.4 |
| 20260506172911 | 64 | 182 | 7.0 | 15.0 | 0.00 | 0.16 | 0.16 | 83 | 1007.3 |
| 20260506172407 | 64 | 193 | 2.0 | 9.0 | 0.00 | 0.16 | 0.16 | 85 | 1007.4 |
| 20260506171904 | 64 | 224 | 7.0 | 13.0 | 0.00 | 0.16 | 0.16 | 85 | 1007.6 |
| 20260506171401 | 63 | 233 | 7.0 | 12.0 | 0.00 | 0.16 | 0.16 | 85 | 1007.4 |
| 20260506170854 | 63 | 280 | 4.0 | 10.0 | 0.00 | 0.16 | 0.16 | 86 | 1007.6 |
| 20260506170350 | 63 | 210 | 8.0 | 11.0 | 0.00 | 0.16 | 0.16 | 86 | 1007.4 |
| 20260506165849 | 63 | 211 | 4.0 | 10.0 | 0.00 | 0.16 | 0.16 | 87 | 1007.4 |
| 20260506165347 | 63 | 231 | 7.0 | 12.0 | 0.00 | 0.16 | 0.16 | 87 | 1007.5 |
| 20260506164843 | 62 | 158 | 2.0 | 9.0 | 0.00 | 0.16 | 0.16 | 88 | 1007.6 |
| 20260506164339 | 62 | 211 | 3.0 | 11.0 | 0.00 | 0.16 | 0.16 | 88 | 1007.4 |
| 20260506163837 | 62 | 165 | 2.0 | 6.0 | 0.00 | 0.16 | 0.16 | 88 | 1007.7 |
| 20260506163331 | 62 | 183 | 3.0 | 11.0 | 0.00 | 0.16 | 0.16 | 88 | 1007.7 |
| 20260506162827 | 62 | 214 | 5.0 | 8.0 | 0.00 | 0.16 | 0.16 | 89 | 1007.6 |
| 20260506162325 | 62 | 198 | 4.0 | 9.0 | 0.00 | 0.16 | 0.16 | 89 | 1007.5 |
| 20260506161823 | 62 | 163 | 5.0 | 9.0 | 0.00 | 0.16 | 0.16 | 89 | 1007.6 |
| 20260506161320 | 62 | 209 | 6.0 | 11.0 | 0.00 | 0.16 | 0.16 | 89 | 1008.0 |
| 20260506160818 | 62 | 258 | 7.0 | 8.0 | 0.00 | 0.16 | 0.16 | 90 | 1007.8 |
| 20260506160314 | 61 | 141 | 5.0 | 10.0 | 0.00 | 0.16 | 0.16 | 90 | 1007.9 |
| 20260506155813 | 61 | 208 | 3.0 | 12.0 | 0.00 | 0.16 | 0.16 | 91 | 1007.8 |
| 20260506155309 | 61 | 180 | 5.0 | 12.0 | 0.00 | 0.16 | 0.16 | 91 | 1007.9 |
| 20260506153427 | 61 | 196 | 3.0 | 13.0 | 0.00 | 0.16 | 0.16 | 91 | 1008.1 |
| 20260506152925 | 61 | 226 | 4.0 | 7.0 | 0.00 | 0.16 | 0.16 | 92 | 1007.7 |
| 20260506152421 | 60 | 196 | 4.0 | 12.0 | 0.02 | 0.16 | 0.16 | 92 | 1007.9 |
| 20260506151920 | 60 | 172 | 6.0 | 13.0 | 0.02 | 0.16 | 0.16 | 93 | 1008.0 |
| 20260506151417 | 60 | 204 | 6.0 | 10.0 | 0.00 | 0.16 | 0.16 | 93 | 1008.2 |
| 20260506150914 | 60 | 145 | 4.0 | 10.0 | 0.00 | 0.16 | 0.16 | 93 | 1008.2 |
| 20260506150410 | 60 | 213 | 5.0 | 8.0 | 0.02 | 0.16 | 0.16 | 93 | 1008.2 |
| 20260506145908 | 60 | 166 | 5.0 | 14.0 | 0.05 | 0.16 | 0.16 | 93 | 1008.6 |
| 20260506145403 | 60 | 178 | 3.0 | 9.0 | 0.05 | 0.15 | 0.15 | 93 | 1008.7 |
| 20260506144901 | 60 | 155 | 6.0 | 12.0 | 0.02 | 0.15 | 0.15 | 93 | 1008.7 |
| 20260506144357 | 60 | 176 | 3.0 | 12.0 | 0.02 | 0.15 | 0.15 | 93 | 1008.8 |
| 20260506143856 | 60 | 181 | 4.0 | 14.0 | 0.05 | 0.15 | 0.15 | 93 | 1008.4 |
| 20260506143352 | 60 | 218 | 3.0 | 9.0 | 0.05 | 0.14 | 0.14 | 93 | 1008.7 |
| 20260506142851 | 60 | 168 | 3.0 | 9.0 | 0.05 | 0.14 | 0.14 | 92 | 1008.2 |
| 20260506142348 | 60 | 208 | 5.0 | 7.0 | 0.05 | 0.13 | 0.13 | 92 | 1008.4 |
| 20260506141847 | 60 | 158 | 3.0 | 9.0 | 0.02 | 0.13 | 0.13 | 92 | 1008.7 |
| 20260506141344 | 60 | 201 | 6.0 | 10.0 | 0.05 | 0.13 | 0.13 | 92 | 1008.5 |
| 20260506140842 | 61 | 165 | 3.0 | 10.0 | 0.07 | 0.12 | 0.12 | 92 | 1008.3 |
| 20260506140339 | 61 | 186 | 4.0 | 11.0 | 0.07 | 0.12 | 0.12 | 91 | 1008.4 |
| 20260506135836 | 61 | 161 | 7.0 | 9.0 | 0.05 | 0.11 | 0.11 | 91 | 1008.5 |
| 20260506135332 | 61 | 190 | 5.0 | 13.0 | 0.09 | 0.11 | 0.11 | 91 | 1008.6 |
| 20260506134829 | 61 | 188 | 4.0 | 11.0 | 0.09 | 0.10 | 0.10 | 91 | 1008.4 |
| 20260506134325 | 61 | 163 | 3.0 | 11.0 | 0.09 | 0.09 | 0.09 | 91 | 1008.9 |
| 20260506133823 | 61 | 213 | 4.0 | 9.0 | 0.05 | 0.08 | 0.08 | 91 | 1009.0 |
| 20260506133319 | 61 | 173 | 3.0 | 8.0 | 0.05 | 0.07 | 0.07 | 91 | 1009.1 |
| 20260506132816 | 61 | 227 | 3.0 | 9.0 | 0.05 | 0.07 | 0.07 | 91 | 1009.2 |
| 20260506132313 | 61 | 235 | 5.0 | 9.0 | 0.05 | 0.07 | 0.07 | 90 | 1009.0 |
| 20260506131811 | 61 | 154 | 4.0 | 8.0 | 0.09 | 0.06 | 0.06 | 90 | 1008.8 |
| 20260506131307 | 61 | 230 | 3.0 | 6.0 | 0.14 | 0.06 | 0.06 | 89 | 1008.6 |
| 20260506130804 | 61 | 187 | 2.0 | 5.0 | 0.07 | 0.04 | 0.04 | 88 | 1008.8 |
| 20260506130300 | 61 | 215 | 4.0 | 6.0 | 0.07 | 0.04 | 0.04 | 87 | 1008.9 |
| 20260506125759 | 62 | 211 | 5.0 | 6.0 | 0.07 | 0.03 | 0.03 | 86 | 1008.7 |
| 20260506125256 | 62 | 193 | 3.0 | 6.0 | 0.07 | 0.02 | 0.02 | 85 | 1008.4 |
| 20260506124755 | 62 | 190 | 3.0 | 5.0 | 0.05 | 0.02 | 0.02 | 84 | 1008.6 |
| 20260506124251 | 62 | 178 | 4.0 | 5.0 | 0.05 | 0.01 | 0.01 | 83 | 1008.5 |
| 20260506123749 | 62 | 162 | 3.0 | 5.0 | 0.02 | 0.01 | 0.01 | 81 | 1008.6 |
| 20260506123248 | 63 | 188 | 4.0 | 5.0 | 0.02 | 0.00 | 0.00 | 78 | 1008.6 |
| 20260506122744 | 63 | 188 | 4.0 | 5.0 | 0.00 | 0.00 | 0.00 | 78 | 1008.9 |
| 20260506122241 | 63 | 206 | 2.0 | 5.0 | 0.00 | 0.00 | 0.00 | 76 | 1008.7 |
| 20260506121739 | 64 | 196 | 5.0 | 6.0 | 0.00 | 0.00 | 0.00 | 76 | 1009.0 |
| 20260506121235 | 64 | 159 | 5.0 | 6.0 | 0.00 | 0.00 | 0.00 | 75 | 1009.1 |
| 20260506120733 | 64 | 186 | 4.0 | 7.0 | 0.00 | 0.00 | 0.00 | 75 | 1008.9 |
| 20260506120231 | 64 | 207 | 4.0 | 9.0 | 0.00 | 0.00 | 0.00 | 73 | 1008.8 |
| 20260506115728 | 64 | 213 | 3.0 | 5.0 | 0.00 | 0.00 | 0.00 | 73 | 1009.0 |
| 20260506115227 | 64 | 211 | 2.0 | 6.0 | 0.00 | 0.00 | 0.00 | 73 | 1008.7 |
| 20260506114724 | 64 | 203 | 6.0 | 8.0 | 0.00 | 0.00 | 0.00 | 72 | 1009.1 |
| 20260506114221 | 64 | 221 | 5.0 | 6.0 | 0.00 | 0.00 | 0.00 | 72 | 1008.7 |
| 20260506113720 | 65 | 247 | 3.0 | 9.0 | 0.00 | 0.00 | 0.00 | 72 | 1008.6 |
| 20260506113217 | 65 | 220 | 8.0 | 9.0 | 0.00 | 0.00 | 0.00 | 71 | 1008.6 |
| 20260506112713 | 65 | 208 | 5.0 | 13.0 | 0.00 | 0.00 | 0.00 | 71 | 1008.5 |
| 20260506112211 | 65 | 145 | 5.0 | 8.0 | 0.00 | 0.00 | 0.00 | 71 | 1008.5 |
| 20260506111708 | 65 | 222 | 4.0 | 11.0 | 0.00 | 0.00 | 0.00 | 70 | 1008.2 |
| 20260506111206 | 65 | 243 | 1.0 | 8.0 | 0.00 | 0.00 | 0.00 | 69 | 1008.4 |
| 20260506110703 | 65 | 228 | 3.0 | 12.0 | 0.00 | 0.00 | 0.00 | 69 | 1008.3 |
| 20260506110200 | 65 | 209 | 4.0 | 5.0 | 0.00 | 0.00 | 0.00 | 69 | 1008.2 |
| 20260506105657 | 65 | 170 | 3.0 | 10.0 | 0.00 | 0.00 | 0.00 | 69 | 1008.1 |